createdAt,value
2023-04-27T00:04:32.326Z,98574.34
2023-04-27T00:09:59.124Z,98576.41
2023-04-27T00:15:24.076Z,98566.91
2023-04-27T00:20:48.146Z,98569.16
2023-04-27T00:26:16.123Z,98570.44
2023-04-27T00:31:42.102Z,98574.53
2023-04-27T00:37:07.086Z,98575.91
2023-04-27T00:42:35.114Z,98581.66
2023-04-27T00:48:00.287Z,98571.56
2023-04-27T00:53:26.108Z,98585.63
2023-04-27T00:59:01.130Z,98580.69
2023-04-27T01:04:27.254Z,98592.50
2023-04-27T01:09:51.082Z,98586.53
2023-04-27T01:15:21.131Z,98579.75
2023-04-27T01:20:46.142Z,98581.97
2023-04-27T01:26:15.150Z,98582.19
2023-04-27T01:31:39.195Z,98573.34
2023-04-27T01:37:04.114Z,98587.69
2023-04-27T01:42:32.099Z,98579.19
2023-04-27T01:48:01.120Z,98573.34
2023-04-27T01:53:25.128Z,98566.50
2023-04-27T01:58:59.176Z,98587.88
2023-04-27T02:04:24.270Z,98596.56
2023-04-27T02:09:49.137Z,98596.28
2023-04-27T02:15:18.145Z,98594.28
2023-04-27T02:20:43.142Z,98604.66
2023-04-27T02:26:08.154Z,98602.56
2023-04-27T02:31:36.194Z,98611.09
2023-04-27T02:42:23.150Z,98622.38
2023-04-27T02:47:51.209Z,98626.44
2023-04-27T02:53:15.425Z,98621.09
2023-04-27T02:58:46.233Z,98627.69
2023-04-27T03:04:14.381Z,98621.50
2023-04-27T03:09:40.188Z,98632.13
2023-04-27T03:15:06.193Z,98625.78
2023-04-27T03:20:33.181Z,98638.13
2023-04-27T03:25:58.172Z,98636.94
2023-04-27T03:31:23.189Z,98638.75
2023-04-27T03:36:51.159Z,98654.47
2023-04-27T03:42:16.164Z,98657.81
2023-04-27T03:47:41.332Z,98660.16
2023-04-27T03:53:09.280Z,98661.88
2023-04-27T03:58:40.171Z,98662.59
2023-04-27T04:04:08.306Z,98664.28
2023-04-27T04:09:36.211Z,98660.69
2023-04-27T04:15:01.176Z,98667.72
2023-04-27T04:20:27.176Z,98670.28
2023-04-27T04:25:56.202Z,98680.69
2023-04-27T04:31:25.193Z,98680.59
2023-04-27T04:36:51.217Z,98681.13
2023-04-27T04:42:18.203Z,98678.28
2023-04-27T04:47:43.278Z,98684.03
2023-04-27T04:53:14.222Z,98687.13
2023-04-27T04:58:48.193Z,98693.06
2023-04-27T05:04:13.546Z,98689.91
2023-04-27T05:09:38.196Z,98687.88
2023-04-27T05:15:06.245Z,98682.03
2023-04-27T05:20:31.529Z,98682.53
2023-04-27T05:31:22.244Z,98682.00
2023-04-27T05:37:00.191Z,98675.91
2023-04-27T05:42:24.262Z,98677.06
2023-04-27T05:47:57.277Z,98678.13
2023-04-27T05:53:30.276Z,98677.44
2023-04-27T05:58:55.228Z,98673.16
2023-04-27T06:04:20.306Z,98681.47
2023-04-27T06:09:48.211Z,98686.31
2023-04-27T06:15:15.228Z,98694.38
2023-04-27T06:20:41.223Z,98695.09
2023-04-27T06:26:08.253Z,98703.41
2023-04-27T06:31:34.424Z,98692.66
2023-04-27T06:36:58.216Z,98704.13
2023-04-27T06:42:26.297Z,98706.44
2023-04-27T06:47:51.297Z,98716.91
2023-04-27T06:53:17.289Z,98709.31
2023-04-27T06:58:51.241Z,98706.56
2023-04-27T07:04:16.300Z,98712.91
2023-04-27T07:09:42.477Z,98712.75
2023-04-27T07:15:11.250Z,98703.03
2023-04-27T07:20:36.278Z,98706.66
2023-04-27T07:26:01.254Z,98714.06
2023-04-27T07:31:29.270Z,98708.94
2023-04-27T07:36:55.400Z,98708.16
2023-04-27T07:42:20.289Z,98715.94
2023-04-27T07:47:49.365Z,98725.56
2023-04-27T07:53:15.380Z,98720.47
2023-04-27T07:58:47.303Z,98719.75
2023-04-27T08:04:15.592Z,98715.16
2023-04-27T08:09:39.457Z,98710.72
2023-04-27T08:15:13.332Z,98724.63
2023-04-27T08:20:41.264Z,98713.53
2023-04-27T08:26:05.308Z,98713.72
2023-04-27T08:31:30.371Z,98713.34
2023-04-27T08:36:58.435Z,98724.50
2023-04-27T08:42:24.307Z,98711.06
2023-04-27T08:47:49.305Z,98714.34
2023-04-27T08:53:27.312Z,98720.16
2023-04-27T08:58:56.359Z,98717.22
2023-04-27T09:04:21.551Z,98719.03
2023-04-27T09:09:49.315Z,98715.34
2023-04-27T09:15:15.305Z,98717.03
2023-04-27T09:20:40.341Z,98709.19
2023-04-27T09:26:10.322Z,98690.16
2023-04-27T09:31:36.361Z,98695.97
2023-04-27T09:37:02.314Z,98689.28
2023-04-27T09:42:30.366Z,98689.13
2023-04-27T09:47:55.438Z,98688.75
2023-04-27T09:53:23.367Z,98680.56
2023-04-27T09:59:25.374Z,98677.75
2023-04-27T10:05:03.449Z,98685.25
2023-04-27T10:10:32.317Z,98683.06
2023-04-27T10:16:00.688Z,98682.03
2023-04-27T10:21:32.054Z,98675.03
2023-04-27T10:26:58.362Z,98670.63
2023-04-27T10:32:27.410Z,98671.44
2023-04-27T10:37:54.367Z,98674.75
2023-04-27T10:43:25.421Z,98672.16
2023-04-27T10:48:53.351Z,98673.88
2023-04-27T10:54:19.353Z,98665.50
2023-04-27T10:59:56.379Z,98667.69
2023-04-27T11:05:37.402Z,98675.34
2023-04-27T11:11:02.452Z,98669.09
2023-04-27T11:16:26.428Z,98663.69
2023-04-27T11:21:54.399Z,98658.28
2023-04-27T11:27:19.388Z,98660.16
2023-04-27T11:32:44.578Z,98661.03
2023-04-27T11:38:15.423Z,98659.97
2023-04-27T11:43:41.422Z,98664.69
2023-04-27T11:49:06.461Z,98659.66
2023-04-27T11:54:38.460Z,98654.00
2023-04-27T12:00:15.555Z,98658.81
2023-04-27T12:05:43.523Z,98652.88
2023-04-27T12:11:11.447Z,98666.63
2023-04-27T12:16:37.451Z,98652.34
2023-04-27T12:22:01.513Z,98639.69
2023-04-27T12:27:29.411Z,98644.53
2023-04-27T12:32:53.870Z,98641.78
2023-04-27T12:38:18.410Z,98646.78
2023-04-27T12:43:47.469Z,98644.19
2023-04-27T12:49:13.432Z,98648.88
2023-04-27T12:54:38.435Z,98641.03
2023-04-27T13:00:16.453Z,98639.69
2023-04-27T13:05:41.453Z,98641.97
2023-04-27T13:11:06.501Z,98636.38
2023-04-27T13:16:34.568Z,98629.41
2023-04-27T13:21:58.445Z,98624.69
2023-04-27T13:27:23.508Z,98625.03
2023-04-27T13:32:50.457Z,98616.38
2023-04-27T13:38:15.464Z,98624.56
2023-04-27T13:43:39.459Z,98612.03
2023-04-27T13:49:07.472Z,98607.22
2023-04-27T13:54:33.472Z,98611.84
2023-04-27T13:59:58.500Z,98601.78
2023-04-27T14:05:27.520Z,98606.66
2023-04-27T14:10:53.466Z,98590.03
2023-04-27T14:16:17.519Z,98593.06
2023-04-27T14:21:45.503Z,98597.19
2023-04-27T14:27:10.495Z,98599.44
2023-04-27T14:32:35.513Z,98599.88
2023-04-27T14:38:03.516Z,98598.47
2023-04-27T14:43:28.486Z,98599.81
2023-04-27T14:48:52.539Z,98604.31
2023-04-27T14:54:20.515Z,98609.00
2023-04-27T14:59:52.513Z,98604.28
2023-04-27T15:05:24.523Z,98611.75
2023-04-27T15:10:52.530Z,98595.09
2023-04-27T15:16:17.579Z,98588.47
2023-04-27T15:21:43.535Z,98586.25
2023-04-27T15:27:17.557Z,98588.00
2023-04-27T15:32:42.620Z,98591.78
2023-04-27T15:38:08.574Z,98587.47
2023-04-27T15:43:37.515Z,98577.31
2023-04-27T15:49:03.522Z,98568.09
2023-04-27T15:54:29.527Z,98563.06
2023-04-27T16:00:03.620Z,98558.97
2023-04-27T16:05:28.581Z,98566.53
2023-04-27T16:10:53.563Z,98555.00
2023-04-27T16:16:21.987Z,98552.28
2023-04-27T16:21:46.562Z,98551.34
2023-04-27T16:27:11.576Z,98541.69
2023-04-27T16:32:39.633Z,98550.88
2023-04-27T16:38:08.106Z,98534.41
2023-04-27T16:43:32.586Z,98542.00
2023-04-27T16:49:11.931Z,98541.53
2023-04-27T16:54:37.790Z,98546.97
2023-04-27T17:00:03.216Z,98550.78
2023-04-27T17:05:30.652Z,98548.53
2023-04-27T17:10:55.669Z,98553.22
2023-04-27T17:16:22.695Z,98547.53
2023-04-27T17:21:50.651Z,98557.53
2023-04-27T17:27:14.638Z,98552.44
2023-04-27T17:32:39.636Z,98559.41
2023-04-27T17:38:01.614Z,98561.63
2023-04-27T17:43:26.639Z,98550.09
2023-04-27T17:48:51.655Z,98547.31
2023-04-27T17:54:18.672Z,98551.56
2023-04-27T17:59:43.634Z,98550.94
2023-04-27T18:05:07.615Z,98564.44
2023-04-27T18:10:35.677Z,98563.28
2023-04-27T18:15:59.638Z,98564.78
2023-04-27T18:21:24.660Z,98564.63
2023-04-27T18:26:53.641Z,98576.75
2023-04-27T18:32:19.641Z,98578.44
2023-04-27T18:37:44.651Z,98579.06
2023-04-27T18:43:12.707Z,98578.22
2023-04-27T18:48:36.638Z,98576.19
2023-04-27T18:54:02.675Z,98567.78
2023-04-27T18:59:29.652Z,98565.41
2023-04-27T19:05:11.527Z,98572.22
2023-04-27T19:10:37.908Z,98578.06
2023-04-27T19:16:05.675Z,98574.28
2023-04-27T19:21:29.674Z,98581.09
2023-04-27T19:26:54.641Z,98580.13
2023-04-27T19:32:22.756Z,98577.00
2023-04-27T19:37:48.886Z,98583.78
2023-04-27T19:43:13.660Z,98577.59
2023-04-27T19:48:42.531Z,98586.34
2023-04-27T19:54:07.717Z,98576.47
2023-04-27T19:59:38.736Z,98576.47
2023-04-27T20:05:06.930Z,98575.75
2023-04-27T20:10:30.656Z,98571.25
2023-04-27T20:15:55.693Z,98575.03
2023-04-27T20:21:22.703Z,98574.03
2023-04-27T20:26:47.685Z,98571.31
2023-04-27T20:32:11.693Z,98565.66
2023-04-27T20:37:43.921Z,98564.81
2023-04-27T20:43:07.714Z,98555.47
2023-04-27T20:48:34.692Z,98555.88
2023-04-27T20:54:02.724Z,98552.75
2023-04-27T20:59:27.731Z,98555.84
2023-04-27T21:04:51.734Z,98557.38
2023-04-27T21:10:20.717Z,98550.59
2023-04-27T21:15:44.688Z,98544.09
2023-04-27T21:21:09.726Z,98549.97
2023-04-27T21:26:36.763Z,98560.97
2023-04-27T21:32:02.744Z,98559.81
2023-04-27T21:37:26.732Z,98561.06
2023-04-27T21:42:54.744Z,98559.88
2023-04-27T21:48:19.726Z,98556.06
2023-04-27T21:53:44.818Z,98549.41
2023-04-27T21:59:12.744Z,98543.59
2023-04-27T22:04:37.925Z,98537.41
2023-04-27T22:10:02.730Z,98543.00
2023-04-27T22:15:30.754Z,98535.38
2023-04-27T22:20:55.861Z,98525.78
2023-04-27T22:26:20.784Z,98519.56
2023-04-27T22:31:47.806Z,98520.44
2023-04-27T22:37:14.729Z,98510.00
2023-04-27T22:42:38.842Z,98501.81
2023-04-27T22:48:06.834Z,98503.66
2023-04-27T22:53:31.754Z,98497.44
2023-04-27T22:58:56.769Z,98500.00
2023-04-27T23:04:24.525Z,98494.66
2023-04-27T23:09:49.845Z,98490.28
2023-04-27T23:15:15.870Z,98488.84
2023-04-27T23:20:43.771Z,98483.50
2023-04-27T23:26:08.777Z,98475.03
2023-04-27T23:31:34.858Z,98462.63
2023-04-27T23:37:02.755Z,98468.25
2023-04-27T23:42:27.787Z,98451.06
2023-04-27T23:47:52.846Z,98444.63
2023-04-27T23:53:20.768Z,98449.69
2023-04-27T23:58:51.842Z,98446.50
